sensor_id;sensor_type;location;lat;lon;timestamp;pressure;altitude;pressure_sealevel;temperature;humidity
56514;BME280;62152;52.078;8.414;2022-11-11T00:01:14;101345.28;;;18.73;54.77
56514;BME280;62152;52.078;8.414;2022-11-11T00:02:56;101329.59;;;18.73;54.65
56514;BME280;62152;52.078;8.414;2022-11-11T00:04:38;101330.41;;;18.74;54.87
56514;BME280;62152;52.078;8.414;2022-11-11T00:06:19;101318.59;;;18.73;54.82
56514;BME280;62152;52.078;8.414;2022-11-11T00:08:02;101315.06;;;18.73;54.73
56514;BME280;62152;52.078;8.414;2022-11-11T00:09:43;101304.84;;;18.73;54.82
56514;BME280;62152;52.078;8.414;2022-11-11T00:11:24;101310.34;;;18.73;54.67
56514;BME280;62152;52.078;8.414;2022-11-11T00:13:05;101306.00;;;18.72;54.89
56514;BME280;62152;52.078;8.414;2022-11-11T00:14:46;101312.31;;;18.73;54.68
56514;BME280;62152;52.078;8.414;2022-11-11T00:16:27;101309.56;;;18.73;54.81
56514;BME280;62152;52.078;8.414;2022-11-11T00:18:09;101311.50;;;18.72;54.78
56514;BME280;62152;52.078;8.414;2022-11-11T00:19:51;101310.69;;;18.72;54.75
56514;BME280;62152;52.078;8.414;2022-11-11T00:21:32;101300.50;;;18.72;54.60
56514;BME280;62152;52.078;8.414;2022-11-11T00:23:19;101302.47;;;18.72;54.87
56514;BME280;62152;52.078;8.414;2022-11-11T00:25:02;101314.25;;;18.72;54.92
56514;BME280;62152;52.078;8.414;2022-11-11T00:26:43;101307.97;;;18.72;54.92
56514;BME280;62152;52.078;8.414;2022-11-11T00:28:24;101302.47;;;18.72;54.91
56514;BME280;62152;52.078;8.414;2022-11-11T00:30:07;101311.50;;;18.72;54.77
56514;BME280;62152;52.078;8.414;2022-11-11T00:31:49;101311.50;;;18.72;54.88
56514;BME280;62152;52.078;8.414;2022-11-11T00:33:30;101308.75;;;18.72;54.98
56514;BME280;62152;52.078;8.414;2022-11-11T00:35:11;101307.97;;;18.72;54.71
56514;BME280;62152;52.078;8.414;2022-11-11T00:36:52;101306.00;;;18.72;54.86
56514;BME280;62152;52.078;8.414;2022-11-11T00:38:36;101296.97;;;18.72;54.77
56514;BME280;62152;52.078;8.414;2022-11-11T00:40:17;101298.91;;;18.71;54.96
56514;BME280;62152;52.078;8.414;2022-11-11T00:41:58;101300.50;;;18.72;54.73
56514;BME280;62152;52.078;8.414;2022-11-11T00:43:39;101303.59;;;18.71;54.89
56514;BME280;62152;52.078;8.414;2022-11-11T00:45:21;101301.66;;;18.71;54.91
56514;BME280;62152;52.078;8.414;2022-11-11T00:47:02;101301.66;;;18.71;54.90
56514;BME280;62152;52.078;8.414;2022-11-11T00:48:43;101307.16;;;18.71;54.79
56514;BME280;62152;52.078;8.414;2022-11-11T00:50:26;101305.56;;;18.70;54.77
56514;BME280;62152;52.078;8.414;2022-11-11T00:52:07;101312.66;;;18.71;54.94
56514;BME280;62152;52.078;8.414;2022-11-11T00:53:51;101322.03;;;18.70;55.02
56514;BME280;62152;52.078;8.414;2022-11-11T00:55:32;101324.44;;;18.72;54.77
56514;BME280;62152;52.078;8.414;2022-11-11T00:57:13;101324.78;;;18.70;54.80
56514;BME280;62152;52.078;8.414;2022-11-11T00:58:54;101330.28;;;18.70;54.90
56514;BME280;62152;52.078;8.414;2022-11-11T01:00:35;101331.44;;;18.69;54.95
56514;BME280;62152;52.078;8.414;2022-11-11T01:02:16;101324.78;;;18.70;54.91
56514;BME280;62152;52.078;8.414;2022-11-11T01:03:57;101335.78;;;18.70;54.92
56514;BME280;62152;52.078;8.414;2022-11-11T01:05:38;101329.50;;;18.70;55.02
56514;BME280;62152;52.078;8.414;2022-11-11T01:07:19;101325.94;;;18.69;54.72
56514;BME280;62152;52.078;8.414;2022-11-11T01:09:06;101327.53;;;18.70;54.96
56514;BME280;62152;52.078;8.414;2022-11-11T01:10:47;101333.84;;;18.71;54.71
56514;BME280;62152;52.078;8.414;2022-11-11T01:12:28;101316.56;;;18.70;54.90
56514;BME280;62152;52.078;8.414;2022-11-11T01:14:09;101317.69;;;18.69;54.73
56514;BME280;62152;52.078;8.414;2022-11-11T01:15:53;101330.28;;;18.70;54.90
56514;BME280;62152;52.078;8.414;2022-11-11T01:17:39;101335.00;;;18.70;54.85
56514;BME280;62152;52.078;8.414;2022-11-11T01:19:19;101357.78;;;18.70;54.92
56514;BME280;62152;52.078;8.414;2022-11-11T01:21:03;101329.84;;;18.68;54.71
56514;BME280;62152;52.078;8.414;2022-11-11T01:22:45;101343.22;;;18.70;54.81
56514;BME280;62152;52.078;8.414;2022-11-11T01:24:28;101347.94;;;18.69;54.95
56514;BME280;62152;52.078;8.414;2022-11-11T01:26:12;101338.09;;;18.68;54.92
56514;BME280;62152;52.078;8.414;2022-11-11T01:27:54;101337.28;;;18.68;54.97
56514;BME280;62152;52.078;8.414;2022-11-11T01:29:35;101340.84;;;18.68;54.75
56514;BME280;62152;52.078;8.414;2022-11-11T01:31:18;101330.63;;;18.69;54.78
56514;BME280;62152;52.078;8.414;2022-11-11T01:33:01;101346.31;;;18.68;54.63
56514;BME280;62152;52.078;8.414;2022-11-11T01:34:42;101342.44;;;18.69;54.89
56514;BME280;62152;52.078;8.414;2022-11-11T01:36:25;101347.47;;;18.67;54.81
56514;BME280;62152;52.078;8.414;2022-11-11T01:38:07;101357.31;;;18.68;54.72
56514;BME280;62152;52.078;8.414;2022-11-11T01:39:51;101359.72;;;18.70;54.84
56514;BME280;62152;52.078;8.414;2022-11-11T01:41:34;101358.91;;;18.69;54.73
56514;BME280;62152;52.078;8.414;2022-11-11T01:43:21;101369.91;;;18.69;54.86
56514;BME280;62152;52.078;8.414;2022-11-11T01:47:29;101368.31;;;18.68;54.80
56514;BME280;62152;52.078;8.414;2022-11-11T01:49:22;101367.97;;;18.70;54.61
56514;BME280;62152;52.078;8.414;2022-11-11T01:51:15;101372.66;;;18.69;54.75
56514;BME280;62152;52.078;8.414;2022-11-11T01:53:03;101366.81;;;18.71;54.70
56514;BME280;62152;52.078;8.414;2022-11-11T01:54:51;101360.06;;;18.68;54.66
56514;BME280;62152;52.078;8.414;2022-11-11T01:56:37;101355.72;;;18.67;54.78
56514;BME280;62152;52.078;8.414;2022-11-11T01:58:20;101362.81;;;18.68;54.72
56514;BME280;62152;52.078;8.414;2022-11-11T02:00:04;101358.91;;;18.69;54.86
56514;BME280;62152;52.078;8.414;2022-11-11T02:01:47;101355.72;;;18.67;54.67
56514;BME280;62152;52.078;8.414;2022-11-11T02:03:32;101355.03;;;18.70;54.87
56514;BME280;62152;52.078;8.414;2022-11-11T02:05:22;101340.84;;;18.68;54.87
56514;BME280;62152;52.078;8.414;2022-11-11T02:07:08;101334.53;;;18.68;54.65
56514;BME280;62152;52.078;8.414;2022-11-11T02:08:50;101336.94;;;18.69;54.64
56514;BME280;62152;52.078;8.414;2022-11-11T02:10:34;101335.34;;;18.68;54.65
56514;BME280;62152;52.078;8.414;2022-11-11T02:12:17;101336.94;;;18.69;54.69
56514;BME280;62152;52.078;8.414;2022-11-11T02:13:58;101331.44;;;18.69;54.73
56514;BME280;62152;52.078;8.414;2022-11-11T02:15:40;101331.44;;;18.69;54.75
56514;BME280;62152;52.078;8.414;2022-11-11T02:17:21;101316.09;;;18.68;54.73
56514;BME280;62152;52.078;8.414;2022-11-11T02:19:04;101322.75;;;18.67;54.70
56514;BME280;62152;52.078;8.414;2022-11-11T02:20:45;101329.03;;;18.68;54.89
56514;BME280;62152;52.078;8.414;2022-11-11T02:22:37;101328.25;;;18.67;54.88
56514;BME280;62152;52.078;8.414;2022-11-11T02:24:29;101336.47;;;18.67;54.82
56514;BME280;62152;52.078;8.414;2022-11-11T02:26:15;101344.72;;;18.67;54.89
56514;BME280;62152;52.078;8.414;2022-11-11T02:28:02;101343.59;;;18.68;54.76
56514;BME280;62152;52.078;8.414;2022-11-11T02:29:49;101356.53;;;18.68;54.97
56514;BME280;62152;52.078;8.414;2022-11-11T02:31:33;101353.78;;;18.68;54.72
56514;BME280;62152;52.078;8.414;2022-11-11T02:33:14;101352.97;;;18.67;54.63
56514;BME280;62152;52.078;8.414;2022-11-11T02:34:55;101358.47;;;18.67;54.80
56514;BME280;62152;52.078;8.414;2022-11-11T02:36:37;101360.06;;;18.68;54.86
56514;BME280;62152;52.078;8.414;2022-11-11T02:38:20;101365.91;;;18.67;54.98
56514;BME280;62152;52.078;8.414;2022-11-11T02:40:04;101374.16;;;18.67;54.75
56514;BME280;62152;52.078;8.414;2022-11-11T02:41:47;101376.06;;;18.66;54.87
56514;BME280;62152;52.078;8.414;2022-11-11T02:43:29;101369.47;;;18.67;54.75
56514;BME280;62152;52.078;8.414;2022-11-11T02:45:12;101374.97;;;18.67;54.73
56514;BME280;62152;52.078;8.414;2022-11-11T02:46:53;101374.97;;;18.67;55.00
56514;BME280;62152;52.078;8.414;2022-11-11T02:48:34;101363.97;;;18.67;54.85
56514;BME280;62152;52.078;8.414;2022-11-11T02:50:15;101367.50;;;18.68;54.73
56514;BME280;62152;52.078;8.414;2022-11-11T02:51:56;101366.72;;;18.67;55.02
56514;BME280;62152;52.078;8.414;2022-11-11T02:53:37;101365.09;;;18.66;54.84
56514;BME280;62152;52.078;8.414;2022-11-11T02:55:21;101367.84;;;18.66;54.75
56514;BME280;62152;52.078;8.414;2022-11-11T02:57:02;101359.59;;;18.66;54.92
56514;BME280;62152;52.078;8.414;2022-11-11T02:58:43;101361.50;;;18.66;54.95
56514;BME280;62152;52.078;8.414;2022-11-11T03:00:24;101365.91;;;18.67;55.02
56514;BME280;62152;52.078;8.414;2022-11-11T03:02:05;101359.59;;;18.66;55.03
56514;BME280;62152;52.078;8.414;2022-11-11T03:03:47;101349.44;;;18.67;54.98
56514;BME280;62152;52.078;8.414;2022-11-11T03:05:28;101354.09;;;18.66;54.70
56514;BME280;62152;52.078;8.414;2022-11-11T03:07:09;101349.72;;;18.65;54.99
56514;BME280;62152;52.078;8.414;2022-11-11T03:08:50;101340.34;;;18.66;55.02
56514;BME280;62152;52.078;8.414;2022-11-11T03:10:34;101338.72;;;18.65;54.84
56514;BME280;62152;52.078;8.414;2022-11-11T03:12:15;101345.03;;;18.66;54.96
56514;BME280;62152;52.078;8.414;2022-11-11T03:13:57;101348.59;;;18.66;55.06
56514;BME280;62152;52.078;8.414;2022-11-11T03:15:41;101350.50;;;18.66;54.81
56514;BME280;62152;52.078;8.414;2022-11-11T03:17:22;101348.59;;;18.66;54.83
56514;BME280;62152;52.078;8.414;2022-11-11T03:19:03;101327.72;;;18.65;55.00
56514;BME280;62152;52.078;8.414;2022-11-11T03:20:46;101340.66;;;18.65;55.04
56514;BME280;62152;52.078;8.414;2022-11-11T03:22:27;101355.22;;;18.65;54.80
56514;BME280;62152;52.078;8.414;2022-11-11T03:24:09;101352.97;;;18.67;54.87
56514;BME280;62152;52.078;8.414;2022-11-11T03:25:53;101358.75;;;18.66;55.03
56514;BME280;62152;52.078;8.414;2022-11-11T03:27:34;101341.19;;;18.67;55.01
56514;BME280;62152;52.078;8.414;2022-11-11T03:29:15;101345.84;;;18.66;54.80
56514;BME280;62152;52.078;8.414;2022-11-11T03:30:55;101337.59;;;18.66;55.02
56514;BME280;62152;52.078;8.414;2022-11-11T03:32:36;101336.78;;;18.66;55.10
56514;BME280;62152;52.078;8.414;2022-11-11T03:34:17;101336.78;;;18.66;54.97
56514;BME280;62152;52.078;8.414;2022-11-11T03:35:58;101330.47;;;18.65;54.98
56514;BME280;62152;52.078;8.414;2022-11-11T03:37:39;101351.34;;;18.66;54.78
56514;BME280;62152;52.078;8.414;2022-11-11T03:39:20;101348.59;;;18.66;54.88
56514;BME280;62152;52.078;8.414;2022-11-11T03:41:04;101345.84;;;18.66;54.96
56514;BME280;62152;52.078;8.414;2022-11-11T03:42:45;101341.47;;;18.65;54.99
56514;BME280;62152;52.078;8.414;2022-11-11T03:44:26;101345.03;;;18.66;54.76
56514;BME280;62152;52.078;8.414;2022-11-11T03:46:07;101343.41;;;18.65;54.88
56514;BME280;62152;52.078;8.414;2022-11-11T03:47:48;101343.41;;;18.65;55.09
56514;BME280;62152;52.078;8.414;2022-11-11T03:49:29;101340.66;;;18.65;54.99
56514;BME280;62152;52.078;8.414;2022-11-11T03:51:10;101346.97;;;18.65;55.05
56514;BME280;62152;52.078;8.414;2022-11-11T03:52:51;101344.22;;;18.65;55.04
56514;BME280;62152;52.078;8.414;2022-11-11T03:54:32;101346.97;;;18.65;55.06
56514;BME280;62152;52.078;8.414;2022-11-11T03:56:15;101345.03;;;18.66;55.02
56514;BME280;62152;52.078;8.414;2022-11-11T03:57:56;101334.38;;;18.64;55.03
56514;BME280;62152;52.078;8.414;2022-11-11T03:59:37;101338.72;;;18.65;55.07
56514;BME280;62152;52.078;8.414;2022-11-11T04:01:19;101346.16;;;18.65;55.04
56514;BME280;62152;52.078;8.414;2022-11-11T04:03:05;101348.13;;;18.64;54.98
56514;BME280;62152;52.078;8.414;2022-11-11T04:04:47;101337.91;;;18.65;55.06
56514;BME280;62152;52.078;8.414;2022-11-11T04:06:28;101335.19;;;18.65;54.82
56514;BME280;62152;52.078;8.414;2022-11-11T04:08:11;101335.97;;;18.65;54.96
56514;BME280;62152;52.078;8.414;2022-11-11T04:09:53;101338.72;;;18.65;54.89
56514;BME280;62152;52.078;8.414;2022-11-11T04:11:41;101323.38;;;18.64;54.99
56514;BME280;62152;52.078;8.414;2022-11-11T04:13:27;101324.19;;;18.65;54.83
56514;BME280;62152;52.078;8.414;2022-11-11T04:15:09;101324.97;;;18.65;54.82
56514;BME280;62152;52.078;8.414;2022-11-11T04:16:50;101318.69;;;18.65;54.81
56514;BME280;62152;52.078;8.414;2022-11-11T04:18:31;101317.88;;;18.64;54.83
56514;BME280;62152;52.078;8.414;2022-11-11T04:20:12;101315.13;;;18.64;55.03
56514;BME280;62152;52.078;8.414;2022-11-11T04:21:53;101309.66;;;18.64;55.00
56514;BME280;62152;52.078;8.414;2022-11-11T04:23:34;101324.97;;;18.65;54.95
56514;BME280;62152;52.078;8.414;2022-11-11T04:25:15;101304.63;;;18.66;54.94
56514;BME280;62152;52.078;8.414;2022-11-11T04:27:00;101328.25;;;18.67;54.74
56514;BME280;62152;52.078;8.414;2022-11-11T04:28:42;101318.03;;;18.68;54.81
56514;BME280;62152;52.078;8.414;2022-11-11T04:30:23;101311.75;;;18.67;54.96
56514;BME280;62152;52.078;8.414;2022-11-11T04:32:06;101311.75;;;18.67;54.70
56514;BME280;62152;52.078;8.414;2022-11-11T04:33:48;101324.19;;;18.65;55.08
56514;BME280;62152;52.078;8.414;2022-11-11T04:35:29;101328.53;;;18.66;54.92
56514;BME280;62152;52.078;8.414;2022-11-11T04:37:11;101334.38;;;18.64;55.07
56514;BME280;62152;52.078;8.414;2022-11-11T04:38:52;101334.38;;;18.64;55.07
56514;BME280;62152;52.078;8.414;2022-11-11T04:40:33;101327.28;;;18.63;54.93
56514;BME280;62152;52.078;8.414;2022-11-11T04:42:16;101331.97;;;18.63;54.91
56514;BME280;62152;52.078;8.414;2022-11-11T04:43:57;101334.72;;;18.63;54.94
56514;BME280;62152;52.078;8.414;2022-11-11T04:45:39;101341.38;;;18.62;54.70
56514;BME280;62152;52.078;8.414;2022-11-11T04:47:20;101344.91;;;18.62;54.85
56514;BME280;62152;52.078;8.414;2022-11-11T04:49:01;101343.31;;;18.61;54.74
56514;BME280;62152;52.078;8.414;2022-11-11T04:50:43;101342.16;;;18.62;54.58
56514;BME280;62152;52.078;8.414;2022-11-11T04:52:24;101366.09;;;18.62;54.61
56514;BME280;62152;52.078;8.414;2022-11-11T04:54:05;101372.75;;;18.61;54.53
56514;BME280;62152;52.078;8.414;2022-11-11T04:55:46;101364.94;;;18.63;54.43
56514;BME280;62152;52.078;8.414;2022-11-11T04:57:29;101359.00;;;18.61;54.40
56514;BME280;62152;52.078;8.414;2022-11-11T04:59:10;101360.13;;;18.59;54.46
56514;BME280;62152;52.078;8.414;2022-11-11T05:00:51;101360.94;;;18.60;54.42
56514;BME280;62152;52.078;8.414;2022-11-11T05:02:32;101364.81;;;18.59;54.59
56514;BME280;62152;52.078;8.414;2022-11-11T05:04:13;101356.13;;;18.57;54.36
56514;BME280;62152;52.078;8.414;2022-11-11T05:05:55;101364.13;;;18.50;53.21
56514;BME280;62152;52.078;8.414;2022-11-11T05:07:37;101368.44;;;18.26;51.64
56514;BME280;62152;52.078;8.414;2022-11-11T05:09:18;101358.91;;;18.24;52.74
56514;BME280;62152;52.078;8.414;2022-11-11T05:10:59;101364.63;;;18.31;53.04
56514;BME280;62152;52.078;8.414;2022-11-11T05:12:45;101371.19;;;18.39;52.52
56514;BME280;62152;52.078;8.414;2022-11-11T05:14:26;101369.81;;;18.45;52.14
56514;BME280;62152;52.078;8.414;2022-11-11T05:16:07;101369.97;;;18.48;52.73
56514;BME280;62152;52.078;8.414;2022-11-11T05:17:52;101369.28;;;18.51;52.25
56514;BME280;62152;52.078;8.414;2022-11-11T05:19:33;101377.66;;;18.55;52.43
56514;BME280;62152;52.078;8.414;2022-11-11T05:21:18;101382.00;;;18.56;52.69
56514;BME280;62152;52.078;8.414;2022-11-11T05:23:01;101387.16;;;18.57;52.25
56514;BME280;62152;52.078;8.414;2022-11-11T05:24:42;101377.75;;;18.58;52.48
56514;BME280;62152;52.078;8.414;2022-11-11T05:26:23;101380.19;;;18.60;52.59
56514;BME280;62152;52.078;8.414;2022-11-11T05:28:07;101382.09;;;18.59;52.72
56514;BME280;62152;52.078;8.414;2022-11-11T05:29:48;101382.09;;;18.59;52.52
56514;BME280;62152;52.078;8.414;2022-11-11T05:31:29;101382.94;;;18.60;52.37
56514;BME280;62152;52.078;8.414;2022-11-11T05:33:10;101380.19;;;18.60;52.44
56514;BME280;62152;52.078;8.414;2022-11-11T05:34:51;101371.94;;;18.60;52.63
56514;BME280;62152;52.078;8.414;2022-11-11T05:36:33;101384.53;;;18.61;52.63
56514;BME280;62152;52.078;8.414;2022-11-11T05:38:14;101375.81;;;18.59;52.42
56514;BME280;62152;52.078;8.414;2022-11-11T05:39:55;101388.44;;;18.60;52.50
56514;BME280;62152;52.078;8.414;2022-11-11T05:41:36;101388.44;;;18.60;52.65
56514;BME280;62152;52.078;8.414;2022-11-11T05:43:19;101395.84;;;18.59;52.50
56514;BME280;62152;52.078;8.414;2022-11-11T05:45:00;101404.09;;;18.59;52.84
56514;BME280;62152;52.078;8.414;2022-11-11T05:46:41;101413.16;;;18.60;52.67
56514;BME280;62152;52.078;8.414;2022-11-11T05:48:22;101415.06;;;18.59;52.74
56514;BME280;62152;52.078;8.414;2022-11-11T05:50:03;101419.75;;;18.59;52.74
56514;BME280;62152;52.078;8.414;2022-11-11T05:51:46;101414.28;;;18.59;53.10
56514;BME280;62152;52.078;8.414;2022-11-11T05:53:27;101414.28;;;18.59;53.02
56514;BME280;62152;52.078;8.414;2022-11-11T05:55:08;101423.31;;;18.59;52.83
56514;BME280;62152;52.078;8.414;2022-11-11T05:56:49;101424.16;;;18.60;52.85
56514;BME280;62152;52.078;8.414;2022-11-11T05:58:33;101420.56;;;18.59;53.01
56514;BME280;62152;52.078;8.414;2022-11-11T06:00:15;101415.06;;;18.59;53.12
56514;BME280;62152;52.078;8.414;2022-11-11T06:01:57;101421.41;;;18.60;53.16
56514;BME280;62152;52.078;8.414;2022-11-11T06:03:38;101425.25;;;18.59;52.93
56514;BME280;62152;52.078;8.414;2022-11-11T06:05:19;101431.56;;;18.59;52.87
56514;BME280;62152;52.078;8.414;2022-11-11T06:07:00;101442.56;;;18.59;53.05
56514;BME280;62152;52.078;8.414;2022-11-11T06:08:41;101441.75;;;18.59;53.13
56514;BME280;62152;52.078;8.414;2022-11-11T06:10:22;101439.81;;;18.59;53.00
56514;BME280;62152;52.078;8.414;2022-11-11T06:12:03;101433.19;;;18.61;53.01
56514;BME280;62152;52.078;8.414;2022-11-11T06:13:47;101440.16;;;18.58;53.37
56514;BME280;62152;52.078;8.414;2022-11-11T06:15:28;101434.66;;;18.58;53.16
56514;BME280;62152;52.078;8.414;2022-11-11T06:17:09;101441.75;;;18.59;53.34
56514;BME280;62152;52.078;8.414;2022-11-11T06:18:50;101437.06;;;18.59;53.16
56514;BME280;62152;52.078;8.414;2022-11-11T06:20:32;101433.19;;;18.61;53.25
56514;BME280;62152;52.078;8.414;2022-11-11T06:22:13;101426.91;;;18.60;53.30
56514;BME280;62152;52.078;8.414;2022-11-11T06:23:54;101422.50;;;18.59;53.40
56514;BME280;62152;52.078;8.414;2022-11-11T06:25:34;101417.03;;;18.59;53.38
56514;BME280;62152;52.078;8.414;2022-11-11T06:27:15;101425.25;;;18.59;53.38
56514;BME280;62152;52.078;8.414;2022-11-11T06:28:59;101421.72;;;18.58;53.46
56514;BME280;62152;52.078;8.414;2022-11-11T06:30:40;101420.91;;;18.58;53.42
56514;BME280;62152;52.078;8.414;2022-11-11T06:32:21;101426.06;;;18.59;53.32
56514;BME280;62152;52.078;8.414;2022-11-11T06:34:02;101426.91;;;18.60;53.30
56514;BME280;62152;52.078;8.414;2022-11-11T06:35:43;101437.88;;;18.60;53.32
56514;BME280;62152;52.078;8.414;2022-11-11T06:37:24;101448.88;;;18.60;53.44
56514;BME280;62152;52.078;8.414;2022-11-11T06:39:05;101444.50;;;18.59;53.32
56514;BME280;62152;52.078;8.414;2022-11-11T06:40:46;101444.50;;;18.59;53.33
56514;BME280;62152;52.078;8.414;2022-11-11T06:42:27;101451.63;;;18.60;53.45
56514;BME280;62152;52.078;8.414;2022-11-11T06:44:11;101441.75;;;18.59;53.48
56514;BME280;62152;52.078;8.414;2022-11-11T06:45:53;101434.31;;;18.59;53.49
56514;BME280;62152;52.078;8.414;2022-11-11T06:47:35;101434.66;;;18.58;53.42
56514;BME280;62152;52.078;8.414;2022-11-11T06:49:15;101426.06;;;18.59;53.56
56514;BME280;62152;52.078;8.414;2022-11-11T06:51:01;101430.75;;;18.59;53.54
56514;BME280;62152;52.078;8.414;2022-11-11T06:52:43;101440.94;;;18.58;53.46
56514;BME280;62152;52.078;8.414;2022-11-11T06:54:24;101436.25;;;18.59;53.60
56514;BME280;62152;52.078;8.414;2022-11-11T06:56:06;101438.19;;;18.58;53.42
56514;BME280;62152;52.078;8.414;2022-11-11T06:57:48;101435.13;;;18.60;53.43
56514;BME280;62152;52.078;8.414;2022-11-11T06:59:31;101437.88;;;18.60;53.59
56514;BME280;62152;52.078;8.414;2022-11-11T07:01:12;101434.66;;;18.58;53.64
56514;BME280;62152;52.078;8.414;2022-11-11T07:02:55;101436.25;;;18.59;53.60
56514;BME280;62152;52.078;8.414;2022-11-11T07:04:36;101432.38;;;18.60;53.62
56514;BME280;62152;52.078;8.414;2022-11-11T07:06:17;101427.22;;;18.58;53.61
56514;BME280;62152;52.078;8.414;2022-11-11T07:08:01;101429.66;;;18.60;53.47
56514;BME280;62152;52.078;8.414;2022-11-11T07:09:42;101428.00;;;18.59;53.61
56514;BME280;62152;52.078;8.414;2022-11-11T07:11:23;101431.56;;;18.59;53.54
56514;BME280;62152;52.078;8.414;2022-11-11T07:13:04;101432.38;;;18.60;53.42
56514;BME280;62152;52.078;8.414;2022-11-11T07:14:49;101425.25;;;18.59;53.61
56514;BME280;62152;52.078;8.414;2022-11-11T07:16:30;101432.38;;;18.60;53.52
56514;BME280;62152;52.078;8.414;2022-11-11T07:18:11;101421.41;;;18.60;53.74
56514;BME280;62152;52.078;8.414;2022-11-11T07:19:52;101427.69;;;18.61;53.51
56514;BME280;62152;52.078;8.414;2022-11-11T07:21:33;101420.25;;;18.61;53.67
56514;BME280;62152;52.078;8.414;2022-11-11T07:23:14;101432.38;;;18.60;53.62
56514;BME280;62152;52.078;8.414;2022-11-11T07:24:55;101431.56;;;18.59;53.55
56514;BME280;62152;52.078;8.414;2022-11-11T07:26:36;101439.50;;;18.61;53.54
56514;BME280;62152;52.078;8.414;2022-11-11T07:28:16;101439.50;;;18.61;53.72
56514;BME280;62152;52.078;8.414;2022-11-11T07:30:00;101446.13;;;18.60;53.68
56514;BME280;62152;52.078;8.414;2022-11-11T07:31:41;101452.06;;;18.62;53.51
56514;BME280;62152;52.078;8.414;2022-11-11T07:33:22;101446.94;;;18.61;53.67
56514;BME280;62152;52.078;8.414;2022-11-11T07:35:03;101444.97;;;18.61;53.54
56514;BME280;62152;52.078;8.414;2022-11-11T07:36:44;101447.72;;;18.61;53.51
56514;BME280;62152;52.078;8.414;2022-11-11T07:38:25;101448.53;;;18.62;53.71
56514;BME280;62152;52.078;8.414;2022-11-11T07:40:08;101452.06;;;18.62;53.68
56514;BME280;62152;52.078;8.414;2022-11-11T07:41:51;101449.34;;;18.62;53.58
56514;BME280;62152;52.078;8.414;2022-11-11T07:43:32;101455.63;;;18.63;53.62
56514;BME280;62152;52.078;8.414;2022-11-11T07:45:16;101449.34;;;18.62;53.70
56514;BME280;62152;52.078;8.414;2022-11-11T07:46:57;101452.06;;;18.62;53.69
56514;BME280;62152;52.078;8.414;2022-11-11T07:48:38;101457.56;;;18.62;53.65
56514;BME280;62152;52.078;8.414;2022-11-11T07:50:19;101441.88;;;18.63;53.47
56514;BME280;62152;52.078;8.414;2022-11-11T07:52:00;101450.47;;;18.61;53.79
56514;BME280;62152;52.078;8.414;2022-11-11T07:53:41;101450.94;;;18.63;53.69
56514;BME280;62152;52.078;8.414;2022-11-11T07:55:22;101456.44;;;18.63;53.75
56514;BME280;62152;52.078;8.414;2022-11-11T07:57:02;101452.06;;;18.62;53.58
56514;BME280;62152;52.078;8.414;2022-11-11T07:58:43;101458.38;;;18.63;53.52
56514;BME280;62152;52.078;8.414;2022-11-11T08:00:27;101459.19;;;18.63;53.52
56514;BME280;62152;52.078;8.414;2022-11-11T08:02:08;101469.03;;;18.64;53.73
56514;BME280;62152;52.078;8.414;2022-11-11T08:03:50;101470.97;;;18.64;53.72
56514;BME280;62152;52.078;8.414;2022-11-11T08:05:31;101470.16;;;18.63;53.53
56514;BME280;62152;52.078;8.414;2022-11-11T08:07:12;101474.53;;;18.64;53.64
56514;BME280;62152;52.078;8.414;2022-11-11T08:08:53;101475.31;;;18.65;53.46
56514;BME280;62152;52.078;8.414;2022-11-11T08:10:34;101472.56;;;18.65;53.64
56514;BME280;62152;52.078;8.414;2022-11-11T08:12:15;101481.63;;;18.65;53.48
56514;BME280;62152;52.078;8.414;2022-11-11T08:13:56;101480.50;;;18.66;53.55
56514;BME280;62152;52.078;8.414;2022-11-11T08:15:40;101482.41;;;18.66;53.50
56514;BME280;62152;52.078;8.414;2022-11-11T08:17:21;101496.16;;;18.66;53.70
56514;BME280;62152;52.078;8.414;2022-11-11T08:19:02;101481.63;;;18.65;53.75
56514;BME280;62152;52.078;8.414;2022-11-11T08:20:43;101484.38;;;18.65;53.52
56514;BME280;62152;52.078;8.414;2022-11-11T08:22:24;101491.50;;;18.66;53.41
56514;BME280;62152;52.078;8.414;2022-11-11T08:24:05;101489.84;;;18.65;53.48
56514;BME280;62152;52.078;8.414;2022-11-11T08:25:46;101497.81;;;18.67;53.60
56514;BME280;62152;52.078;8.414;2022-11-11T08:27:27;101501.38;;;18.67;53.56
56514;BME280;62152;52.078;8.414;2022-11-11T08:29:08;101502.47;;;18.66;53.64
56514;BME280;62152;52.078;8.414;2022-11-11T08:30:52;101497.00;;;18.66;53.63
56514;BME280;62152;52.078;8.414;2022-11-11T08:32:33;101500.56;;;18.67;53.63
56514;BME280;62152;52.078;8.414;2022-11-11T08:34:14;101504.13;;;18.67;53.57
56514;BME280;62152;52.078;8.414;2022-11-11T08:35:58;101504.13;;;18.67;53.70
56514;BME280;62152;52.078;8.414;2022-11-11T08:37:39;101507.66;;;18.68;53.41
56514;BME280;62152;52.078;8.414;2022-11-11T08:39:20;101511.22;;;18.68;53.56
56514;BME280;62152;52.078;8.414;2022-11-11T08:41:02;101523.34;;;18.67;53.34
56514;BME280;62152;52.078;8.414;2022-11-11T08:42:44;101504.13;;;18.67;53.54
56514;BME280;62152;52.078;8.414;2022-11-11T08:44:25;101510.41;;;18.68;53.45
56514;BME280;62152;52.078;8.414;2022-11-11T08:46:08;101509.63;;;18.67;53.71
56514;BME280;62152;52.078;8.414;2022-11-11T08:47:49;101504.91;;;18.68;53.64
56514;BME280;62152;52.078;8.414;2022-11-11T08:49:30;101505.72;;;18.68;53.39
56514;BME280;62152;52.078;8.414;2022-11-11T08:51:11;101502.63;;;18.70;53.40
56514;BME280;62152;52.078;8.414;2022-11-11T08:52:52;101504.56;;;18.69;53.44
56514;BME280;62152;52.078;8.414;2022-11-11T08:54:33;101502.16;;;18.68;53.62
56514;BME280;62152;52.078;8.414;2022-11-11T08:56:14;101506.19;;;18.70;53.51